x

Columbia River Bar - 20nm West Of Columbia River Mouth (46029) Wave Buoy

6:50am - Fri 23rd Jun 2017 All times are PDT. -7 hours from GMT.

  • Sig Wave height 6.6ft
  • Swell Direction
  • Peak Period 8s
  • Average Period 5s
  • Wind
    20mph, 22mph gusts
  • Sea Temp 57°f
  • 空気 Temp 57°f
  • Sea Pressure 1022mb
  • Columbia River Bar - 20nm West Of Columbia River Mouth
  • Columbia River Bar - 20nm West Of Columbia River Mouth

More Historic Weather Station data

Upgrade to MSW Pro to gain access to the past 30 days of data for over 8000 Wavebouys and Weather Stations around the globe.

Join Pro

Comparision Forecast

View Surf forecast
   
Fri 06/23 6:50am 6.5ft 8s 5s 20 22 mph 1022mb 57f 57f
5:50am 6.5ft 7s 6s 18 20 mph 1022mb 57f 57f
4:50am 6.5ft 7s 6s 22 25 mph 1022.2mb 57f 58f
3:50am 6.5ft 7s 6s 18 20 mph 1022.5mb 57f 58f
2:50am 6.5ft 8s 6s 18 22 mph 1022.8mb 57f 58f
1:50am 6ft 8s 6s 18 20 mph 1023.1mb 57f 58f
12:50am 6.5ft 7s 6s 20 22 mph 1023.3mb 57f 58f
Thu 06/22 11:50pm 6ft 8s 6s 20 22 mph 1023.7mb 58f 58f
10:50pm 6ft 7s 5s 20 25 mph 1023.6mb 58f 58f
9:50pm 6ft 10s 5s 22 25 mph 1023.7mb 58f 58f
8:50pm 5.5ft 10s 5s 25 29 mph 1023.5mb 58f 58f
7:50pm 6ft 9s 5s 25 29 mph 1023.8mb 58f 59f
6:50pm 5ft 7s 5s 25 29 mph 1023.6mb 59f 59f
5:50pm 6ft 10s  -  25 29 mph 1023.9mb 59f 58f
4:50pm 6ft 8s 5s 22 27 mph 1024.3mb 59f 58f
3:50pm 6ft 7s 5s 25 29 mph 1024.5mb 59f 58f
2:50pm 7ft 7s 6s 25 27 mph 1024.8mb 59f 58f
1:50pm 7ft 8s 6s 22 29 mph 1025.2mb 59f 58f
12:50pm 7ft 8s 6s 18 22 mph 1025.2mb 58f 58f
11:50am 6.5ft 8s 6s 20 25 mph 1025.5mb 59f 57f
10:50am 6.5ft 8s 6s 20 22 mph 1025.7mb 58f 57f
9:50am 7ft 9s 6s 20 25 mph 1025.6mb 59f 57f
8:50am 6.5ft 9s 6s 20 22 mph 1025.6mb 59f 57f
7:50am 6.5ft 10s 6s 22 25 mph 1025.6mb 58f 57f
6:50am 6ft 7s 6s 22 25 mph 1025.5mb 59f 57f
5:50am 6ft 10s 6s 20 25 mph 1025.5mb 59f 57f
4:50am 6.5ft 10s 6s 20 25 mph 1025.5mb 59f 56f
3:50am 6ft 6s 5s 20 25 mph 1025.6mb 59f 57f
2:50am 6ft 10s 5s 20 25 mph 1025.8mb 59f 57f
1:50am 6ft 7s 5s 22 25 mph 1025.9mb 59f 57f
12:50am 6ft 7s 5s 22 27 mph 1025.9mb 59f 57f
Wed 06/21 11:50pm 6ft 11s 5s 22 29 mph 1026mb 59f 57f
10:50pm 6.5ft 6s 5s 25 27 mph 1026.1mb 60f 57f
9:50pm 6ft 7s 5s 25 29 mph 1026.1mb 60f 57f
8:50pm 6.5ft 10s 5s 22 27 mph 1026mb 60f 57f
7:50pm 6ft 6s 5s 25 29 mph 1026.3mb 59f 57f
6:50pm 6ft 9s 5s 25 29 mph 1026.4mb 59f 57f
5:50pm 6ft 7s 5s 22 27 mph 1026.6mb 59f 57f
4:50pm 5.5ft 7s 5s 22 27 mph 1027.2mb 59f 57f
3:50pm 6ft 6s 5s 22 27 mph 1027.3mb 59f 57f
2:50pm 5.5ft 7s 5s 20 22 mph 1027.5mb 60f 57f
1:50pm 5ft 7s 5s 20 25 mph 1027.7mb 60f 57f
12:50pm 5ft 6s 5s 20 22 mph 1027.8mb 59f 57f
11:50am 6ft 7s 5s 18 22 mph 1027.9mb 59f 57f
10:50am 5ft 6s 5s 20 22 mph 1028.1mb 58f 57f
9:50am 5.5ft 6s 5s 18 22 mph 1027.7mb 58f 57f
8:50am 6ft 7s 6s 20 25 mph 1027.5mb 58f 57f
7:50am 6.5ft 7s 6s 16 20 mph 1026.8mb 59f 56f
6:50am 6ft 6s 5s 18 20 mph 1027.2mb 59f 56f
5:50am 6.5ft 6s 6s 20 25 mph 1026.7mb 59f 56f
4:50am 7ft 7s 6s 18 22 mph 1026.7mb 60f 57f
3:50am 8ft 7s 6s 20 25 mph 1026.8mb 60f 57f
2:50am 7.5ft 7s 6s 20 25 mph 1026.2mb 60f 56f
1:50am 8ft 6s 6s 18 22 mph 1026.1mb 60f 57f
12:50am 7.5ft 7s 6s 18 25 mph 1026mb 60f 57f
Tue 06/20 11:50pm 7ft 7s 6s 20 25 mph 1025.8mb 60f 57f
10:50pm 6.5ft 7s 6s 22 27 mph 1025.9mb 60f 57f
9:50pm 7ft 6s 6s 22 25 mph 1025.2mb 60f 57f
8:50pm 6.5ft 7s 6s 20 25 mph 1025.3mb 60f 57f
7:50pm 7ft 7s 6s 22 27 mph 1025mb 61f 57f
6:50pm 7ft 7s 6s 20 25 mph 1025mb 60f 58f
5:50pm 7ft 6s 6s 20 25 mph 1024.8mb 60f 57f
4:50pm 6ft 6s 5s 22 27 mph 1025.2mb 60f 57f
3:50pm 6ft 7s 5s 22 25 mph 1024.7mb 61f 58f
2:50pm 6ft 7s 5s 22 25 mph 1024.4mb 61f 58f
1:50pm 5ft 10s 5s 22 27 mph 1024mb 61f 58f
12:50pm 4.5ft 11s 5s 22 25 mph 1023.3mb 61f 58f
11:50am 4.5ft 9s 5s 22 25 mph 1022.6mb 61f 59f
10:50am 4ft 10s 6s 18 22 mph 1021.7mb 61f 59f
9:50am 4.5ft 9s  -  16 18 mph 1021.3mb 61f 59f
8:50am 4.5ft 10s 8s 7 11 mph 1020.8mb 61f 59f
7:50am 4.5ft 10s 7s 7 7 mph 1020.5mb 61f 58f
6:50am 4.5ft 10s 8s 4 7 mph 1020.1mb 61f 58f
5:50am 4.5ft 9s 8s 4 7 mph 1019.8mb 61f 57f
4:50am 4.5ft 10s 7s 4 7 mph 1019.2mb 61f 57f
3:50am 4.5ft 10s 8s 7 9 mph 1019.1mb 61f 57f
2:50am 4.5ft 10s 8s 7 11 mph 1019mb 62f 57f
1:50am 4.5ft 10s 8s 9 9 mph 1018.9mb 62f 57f
12:50am 4.5ft 8s 7s 7 9 mph 1018.8mb 62f 57f
Mon 06/19 11:50pm 4.5ft 9s 6s 4 7 mph 1018.9mb 62f 57f
10:50pm 4.5ft 10s 7s 4 4 mph 1018.6mb 62f 57f
9:50pm 4.5ft 10s 6s 7 11 mph 1018.2mb 62f 58f
8:50pm 4.5ft 9s 6s 11 13 mph 1018mb 61f 59f
7:50pm 4.5ft 10s 6s 11 16 mph 1017.8mb 61f 60f
6:50pm 4.5ft 10s 7s 11 13 mph 1017.6mb 62f 60f
5:50pm 4.5ft 9s 7s 11 13 mph 1017.7mb 61f 59f
4:50pm 4.5ft 10s 7s 9 11 mph 1017.7mb 60f 58f
3:50pm 5ft 10s 7s 13 13 mph 1017.9mb 60f 58f